Time;durP1;ratioP1;P1;durP2;ratioP2;P2;SDS_P1;SDS_P2;PMS_P1;PMS_P2;Temp;Humidity;BMP_temperature;BMP_pressure;BME280_temperature;BME280_humidity;BME280_pressure;Samples;Min_cycle;Max_cycle;Signal;HPM_P1;HPM_P2
2022/09/06 00:00:15;;;;;;;1.83;1.05;;;;;;;9.43;63.99;100062.66;5032108;28;20026;-47
2022/09/06 00:02:42;;;;;;;1.17;1.08;;;;;;;9.37;63.99;100052.41;5022919;28;20052;-50
2022/09/06 00:05:09;;;;;;;2.60;1.20;;;;;;;9.30;64.13;100061.84;5025644;28;20132;-47
2022/09/06 00:07:35;;;;;;;1.83;1.52;;;;;;;9.30;64.30;100056.50;5031186;28;20029;-49
2022/09/06 00:10:01;;;;;;;1.50;1.40;;;;;;;9.29;64.47;100069.00;5031071;28;20029;-48
2022/09/06 00:12:29;;;;;;;1.88;1.20;;;;;;;9.32;64.61;100060.75;5013018;28;20060;-45
2022/09/06 00:14:55;;;;;;;1.80;1.38;;;;;;;9.38;64.48;100064.81;5012267;28;20034;-48
2022/09/06 00:17:20;;;;;;;1.55;1.45;;;;;;;9.42;64.04;100050.25;5012359;28;20116;-50
2022/09/06 00:19:46;;;;;;;1.60;1.50;;;;;;;9.53;63.88;100062.00;5030742;28;20124;-48
2022/09/06 00:22:11;;;;;;;1.77;1.60;;;;;;;9.55;63.67;100058.22;5031448;28;20026;-44
2022/09/06 00:24:37;;;;;;;1.92;1.52;;;;;;;9.59;64.02;100059.72;5019384;28;20033;-47
2022/09/06 00:27:07;;;;;;;1.92;1.67;;;;;;;9.68;63.30;100060.88;5011256;28;20049;-48
2022/09/06 00:29:33;;;;;;;1.95;1.45;;;;;;;9.64;63.46;100051.38;5012153;28;20138;-47
2022/09/06 00:31:59;;;;;;;2.53;1.40;;;;;;;9.68;63.39;100060.88;5031316;28;20164;-51
2022/09/06 00:34:25;;;;;;;2.45;1.17;;;;;;;9.71;63.19;100057.97;5030548;28;20485;-49
2022/09/06 00:36:51;;;;;;;1.40;1.17;;;;;;;9.69;63.05;100056.38;5017891;28;20069;-46
2022/09/06 00:39:16;;;;;;;1.60;1.10;;;;;;;9.67;62.98;100058.31;5010855;28;20553;-47
2022/09/06 00:41:42;;;;;;;1.95;1.10;;;;;;;9.60;63.40;100047.22;5012927;28;20052;-46
2022/09/06 00:44:08;;;;;;;2.10;1.20;;;;;;;9.51;63.49;100042.53;5026885;28;20045;-45
2022/09/06 00:46:35;;;;;;;1.33;1.23;;;;;;;9.48;64.09;100056.97;5030965;28;20455;-46
2022/09/06 00:49:24;;;;;;;1.30;1.20;;;;;;;9.50;64.28;100060.38;5029324;28;20465;-46
2022/09/06 00:52:00;;;;;;;1.15;0.98;;;;;;;9.40;64.26;100057.53;5010564;28;20052;-47
2022/09/06 00:54:27;;;;;;;4.05;1.10;;;;;;;9.31;64.40;100056.38;5011181;28;20450;-47
2022/09/06 00:56:54;;;;;;;2.25;1.10;;;;;;;9.31;64.92;100061.72;5015711;28;20393;-46
2022/09/06 00:59:20;;;;;;;1.20;1.08;;;;;;;9.30;64.60;100048.47;5030029;28;20068;-45
2022/09/06 01:01:45;;;;;;;2.35;0.95;;;;;;;9.31;64.68;100053.69;5031013;28;20425;-45
2022/09/06 01:04:12;;;;;;;2.95;1.20;;;;;;;9.41;64.44;100050.38;5010229;28;20362;-49
2022/09/06 01:07:02;;;;;;;5.18;1.27;;;;;;;9.53;64.41;100052.16;5010700;28;20099;-47
2022/09/06 01:09:46;;;;;;;1.33;1.20;;;;;;;9.54;64.55;100043.16;5020274;28;20549;-46
2022/09/06 01:12:33;;;;;;;3.00;1.25;;;;;;;9.53;64.38;100048.63;5031003;28;20037;-44
2022/09/06 01:15:38;;;;;;;4.85;1.20;;;;;;;9.54;64.39;100048.50;5023849;28;20147;-44
2022/09/06 01:18:20;;;;;;;3.45;1.20;;;;;;;9.54;64.24;100059.19;5012440;28;20176;-50
2022/09/06 01:21:13;;;;;;;3.72;1.27;;;;;;;9.57;64.12;100042.94;5014603;28;20032;-47
2022/09/06 01:24:16;;;;;;;1.85;1.20;;;;;;;9.61;64.27;100048.91;5030094;28;20543;-46
2022/09/06 01:26:44;;;;;;;1.92;1.13;;;;;;;9.56;64.05;100051.09;5030550;28;20488;-50
2022/09/06 01:29:26;;;;;;;2.88;1.30;;;;;;;9.56;64.25;100054.59;5013944;28;20180;-45
2022/09/06 01:32:01;;;;;;;3.10;1.15;;;;;;;9.57;64.08;100050.13;5011120;28;20045;-46
2022/09/06 01:34:29;;;;;;;2.37;1.20;;;;;;;9.58;63.92;100044.63;5026278;28;20068;-45
2022/09/06 01:36:59;;;;;;;3.50;1.40;;;;;;;9.60;64.13;100050.72;5030069;28;20399;-45
2022/09/06 01:39:31;;;;;;;1.75;1.15;;;;;;;9.65;64.07;100057.59;5013299;28;20038;-45
2022/09/06 01:42:03;;;;;;;1.20;1.10;;;;;;;9.61;64.08;100057.78;5029962;28;20030;-48
2022/09/06 01:44:30;;;;;;;1.73;1.05;;;;;;;9.63;63.74;100055.84;5030288;28;20040;-49
2022/09/06 01:47:19;;;;;;;3.10;1.15;;;;;;;9.73;63.65;100063.22;5024252;28;20435;-47
2022/09/06 01:50:05;;;;;;;1.90;1.42;;;;;;;9.67;63.69;100052.97;5010527;28;20467;-48
2022/09/06 01:52:37;;;;;;;2.65;1.25;;;;;;;9.53;63.31;100038.78;5012664;28;20068;-44
2022/09/06 01:55:32;;;;;;;2.63;1.52;;;;;;;9.66;63.12;100059.28;5030175;28;20041;-47
2022/09/06 01:58:14;;;;;;;1.55;1.30;;;;;;;9.68;63.02;100050.16;5028142;28;20504;-48
2022/09/06 02:00:56;;;;;;;1.65;1.55;;;;;;;9.65;63.11;100046.88;5010540;28;20046;-48
2022/09/06 02:03:28;;;;;;;1.90;1.60;;;;;;;9.63;63.07;100050.50;5010561;28;20026;-49
2022/09/06 02:06:02;;;;;;;1.50;1.40;;;;;;;9.64;62.99;100048.69;5010609;28;20393;-47
2022/09/06 02:08:40;;;;;;;2.20;1.33;;;;;;;9.70;63.36;100053.59;5010378;28;20046;-44
2022/09/06 02:11:07;;;;;;;1.70;1.60;;;;;;;9.65;63.15;100049.56;5009453;28;20037;-47
2022/09/06 02:13:56;;;;;;;4.20;2.65;;;;;;;9.63;63.30;100058.50;5010286;28;20053;-45
2022/09/06 02:16:25;;;;;;;2.60;1.73;;;;;;;9.45;63.21;100054.53;5011404;28;20164;-51
2022/09/06 02:19:02;;;;;;;5.07;2.20;;;;;;;9.29;63.40;100034.25;5014257;28;20042;-50
2022/09/06 02:21:36;;;;;;;3.80;2.10;;;;;;;9.41;63.67;100059.22;5031635;28;20033;-47
2022/09/06 02:24:08;;;;;;;3.80;1.88;;;;;;;9.43;63.42;100067.16;5032268;28;20029;-44
2022/09/06 02:26:41;;;;;;;2.45;1.98;;;;;;;9.39;63.43;100060.31;5022148;28;20044;-48
2022/09/06 02:29:07;;;;;;;2.80;1.92;;;;;;;9.31;63.65;100060.88;5014081;28;20029;-46
2022/09/06 02:31:43;;;;;;;3.58;2.22;;;;;;;9.42;63.18;100070.78;5013646;28;20033;-45
2022/09/06 02:34:12;;;;;;;3.17;1.80;;;;;;;9.44;63.07;100067.03;5024223;28;20374;-45
2022/09/06 02:36:38;;;;;;;3.85;2.55;;;;;;;9.41;62.81;100069.94;5033339;28;20103;-44
2022/09/06 02:39:04;;;;;;;1.88;1.70;;;;;;;9.40;62.64;100072.69;5033696;28;20416;-46
2022/09/06 02:41:30;;;;;;;2.15;1.70;;;;;;;9.40;62.66;100073.56;5014512;28;20108;-46
2022/09/06 02:43:56;;;;;;;4.20;2.35;;;;;;;9.43;62.59;100072.50;5013637;28;20045;-45
2022/09/06 02:46:23;;;;;;;4.85;2.58;;;;;;;9.43;63.08;100077.84;5022225;28;20029;-48
2022/09/06 02:48:49;;;;;;;3.88;2.60;;;;;;;9.46;63.20;100066.94;5033868;28;20036;-46
2022/09/06 02:51:15;;;;;;;2.38;2.17;;;;;;;9.47;62.62;100068.63;5032675;28;20030;-44
2022/09/06 02:53:40;;;;;;;3.85;1.95;;;;;;;9.47;62.87;100066.81;5013041;28;20030;-50
2022/09/06 02:56:06;;;;;;;3.45;1.75;;;;;;;9.47;62.99;100074.81;5013068;28;20455;-46
2022/09/06 02:58:31;;;;;;;2.53;2.33;;;;;;;9.45;63.08;100062.56;5012243;28;20029;-46
2022/09/06 03:00:57;;;;;;;2.38;1.98;;;;;;;9.49;62.70;100074.72;5013238;28;20045;-46
2022/09/06 03:03:23;;;;;;;6.05;2.42;;;;;;;9.52;62.63;100074.50;5012618;28;20030;-54
2022/09/06 03:05:51;;;;;;;3.38;1.85;;;;;;;9.41;62.30;100061.06;5025518;28;20060;-44
2022/09/06 03:08:18;;;;;;;2.50;1.70;;;;;;;9.54;62.12;100075.25;5032998;28;20402;-45
2022/09/06 03:10:48;;;;;;;2.25;1.83;;;;;;;9.58;62.20;100078.56;5027904;28;20391;-44
2022/09/06 03:13:14;;;;;;;2.88;2.15;;;;;;;9.55;62.16;100071.59;5012368;28;20513;-43
2022/09/06 03:15:40;;;;;;;2.33;1.88;;;;;;;9.54;62.25;100075.25;5012186;28;20034;-47
2022/09/06 03:18:05;;;;;;;4.72;2.58;;;;;;;9.56;62.10;100073.31;5027617;28;20037;-46
2022/09/06 03:20:31;;;;;;;3.22;2.33;;;;;;;9.62;62.44;100077.34;5032406;28;20030;-43
2022/09/06 03:22:56;;;;;;;2.22;1.85;;;;;;;9.63;62.05;100069.22;5025709;28;20065;-48
2022/09/06 03:25:22;;;;;;;3.35;2.20;;;;;;;9.61;62.43;100079.16;5012632;28;20033;-47
2022/09/06 03:27:47;;;;;;;4.47;2.00;;;;;;;9.59;62.07;100072.25;5012121;28;20120;-45
2022/09/06 03:30:13;;;;;;;3.15;1.80;;;;;;;9.63;61.91;100079.91;5028031;28;20037;-46
2022/09/06 03:32:38;;;;;;;3.15;2.30;;;;;;;9.67;61.99;100077.88;5032193;28;20033;-44
2022/09/06 03:35:04;;;;;;;6.68;2.95;;;;;;;9.71;61.85;100084.69;5022864;28;20116;-45
2022/09/06 03:37:30;;;;;;;2.15;1.60;;;;;;;9.71;62.09;100083.84;5012120;28;20042;-51
2022/09/06 03:39:55;;;;;;;1.50;1.30;;;;;;;9.74;62.85;100078.28;5017194;28;20033;-48
2022/09/06 03:42:21;;;;;;;3.17;1.67;;;;;;;9.77;63.37;100081.59;5032376;28;20040;-44
2022/09/06 03:44:46;;;;;;;2.85;1.88;;;;;;;9.80;63.32;100088.53;5024819;28;20061;-45
2022/09/06 03:47:12;;;;;;;22.35;12.05;;;;;;;9.82;63.65;100081.25;5019935;28;20033;-49
2022/09/06 03:49:38;;;;;;;23.63;12.32;;;;;;;9.86;63.83;100085.38;5032179;28;20365;-48
2022/09/06 03:52:03;;;;;;;6.05;4.05;;;;;;;9.89;64.04;100093.22;5031416;28;20034;-46
2022/09/06 03:54:29;;;;;;;4.90;3.30;;;;;;;9.96;63.24;100087.41;5012617;28;20045;-45
2022/09/06 03:56:56;;;;;;;15.77;8.43;;;;;;;9.97;63.23;100089.94;5012436;28;20397;-49
2022/09/06 03:59:21;;;;;;;10.48;6.10;;;;;;;9.98;62.89;100072.09;5015879;28;20018;-48
2022/09/06 04:01:47;;;;;;;6.53;3.45;;;;;;;9.93;62.38;100071.59;5011634;28;20034;-49
2022/09/06 04:04:12;;;;;;;9.60;5.05;;;;;;;10.07;62.85;100089.28;5012109;28;20041;-45
2022/09/06 04:06:38;;;;;;;14.43;7.00;;;;;;;10.10;62.49;100092.56;5023341;28;20504;-45
2022/09/06 04:09:03;;;;;;;9.95;5.32;;;;;;;10.10;62.57;100086.38;5027723;28;20037;-48
2022/09/06 04:11:29;;;;;;;10.45;4.65;;;;;;;9.89;62.06;100053.09;5031401;28;20033;-46
2022/09/06 04:13:54;;;;;;;7.57;3.92;;;;;;;10.13;61.90;100084.34;5017801;28;20480;-45
2022/09/06 04:16:20;;;;;;;4.55;2.90;;;;;;;10.19;61.61;100083.88;5012018;28;20038;-46
2022/09/06 04:18:46;;;;;;;6.97;3.08;;;;;;;10.23;61.23;100086.31;5015298;28;20434;-46
2022/09/06 04:21:11;;;;;;;2.28;1.92;;;;;;;10.23;61.26;100086.31;5031076;28;20381;-47
2022/09/06 04:23:37;;;;;;;6.68;3.78;;;;;;;10.26;61.45;100088.75;5031625;28;20071;-47
2022/09/06 04:26:03;;;;;;;5.07;2.67;;;;;;;10.27;60.81;100088.66;5016164;28;20033;-44
2022/09/06 04:28:28;;;;;;;1.65;1.20;;;;;;;10.07;61.39;100068.72;5011046;28;20048;-47
2022/09/06 04:30:56;;;;;;;2.88;1.30;;;;;;;10.13;61.40;100094.16;5015383;28;20478;-48
2022/09/06 04:33:25;;;;;;;3.95;2.45;;;;;;;10.14;61.13;100082.50;5031096;28;20491;-47
2022/09/06 04:35:58;;;;;;;5.53;2.88;;;;;;;10.28;61.16;100090.34;5031592;28;20044;-49
2022/09/06 04:38:26;;;;;;;2.38;1.35;;;;;;;10.27;60.96;100088.66;5012286;28;20069;-47
2022/09/06 04:40:52;;;;;;;2.30;1.40;;;;;;;10.37;60.48;100086.13;5010962;28;20022;-45
2022/09/06 04:43:18;;;;;;;1.75;1.30;;;;;;;10.48;60.09;100096.03;5019928;28;20029;-49
2022/09/06 04:45:44;;;;;;;2.22;1.60;;;;;;;10.53;59.72;100084.97;5030968;28;20038;-48
2022/09/06 04:48:10;;;;;;;2.25;1.17;;;;;;;10.69;59.41;100090.88;5030570;28;20028;-48
2022/09/06 04:50:36;;;;;;;3.00;0.90;;;;;;;10.88;59.06;100089.47;5025420;28;20040;-45
2022/09/06 04:53:02;;;;;;;2.88;1.00;;;;;;;10.94;59.00;100080.94;5010967;28;20037;-50
2022/09/06 04:55:30;;;;;;;3.85;0.98;;;;;;;10.97;58.87;100078.00;5013118;28;20030;-50
2022/09/06 04:57:59;;;;;;;2.80;1.45;;;;;;;11.03;58.46;100080.19;5030921;28;20052;-53
2022/09/06 05:00:28;;;;;;;2.53;1.48;;;;;;;11.16;58.10;100087.28;5030662;28;20029;-50
2022/09/06 05:02:54;;;;;;;2.92;1.33;;;;;;;11.26;57.43;100084.72;5030352;28;20033;-46
2022/09/06 05:05:21;;;;;;;1.38;0.80;;;;;;;11.45;56.63;100087.66;5012423;28;20807;-51
2022/09/06 05:07:47;;;;;;;1.38;0.90;;;;;;;11.61;56.00;100079.22;5010314;28;20139;-52
2022/09/06 05:10:12;;;;;;;4.97;0.90;;;;;;;11.75;55.38;100083.47;5015356;28;20018;-52
2022/09/06 05:12:38;;;;;;;2.22;0.95;;;;;;;11.83;55.19;100082.84;5030110;28;20536;-48
2022/09/06 05:15:04;;;;;;;0.90;0.65;;;;;;;11.94;54.10;100083.78;5030029;28;20122;-48
2022/09/06 05:17:29;;;;;;;1.40;0.70;;;;;;;11.94;53.96;100081.97;5027924;28;20033;-50
2022/09/06 05:19:55;;;;;;;1.65;0.80;;;;;;;12.02;53.61;100082.19;5030030;28;20038;-50
2022/09/06 05:22:20;;;;;;;1.52;0.65;;;;;;;12.07;53.20;100081.81;5020721;28;20046;-52
2022/09/06 05:24:46;;;;;;;1.20;0.60;;;;;;;12.17;53.03;100079.19;5010263;28;20065;-48
2022/09/06 05:27:11;;;;;;;1.30;0.50;;;;;;;12.20;52.40;100071.75;5010493;28;20076;-55
2022/09/06 05:29:37;;;;;;;1.30;0.50;;;;;;;12.35;52.04;100077.66;5030312;28;20036;-53
2022/09/06 05:32:03;;;;;;;1.70;0.70;;;;;;;12.48;51.53;100087.38;5029863;28;20389;-49
2022/09/06 05:34:28;;;;;;;2.05;0.50;;;;;;;12.49;51.21;100076.50;5016819;28;20041;-50
2022/09/06 05:36:54;;;;;;;3.75;0.70;;;;;;;12.44;50.94;100059.09;5010329;28;20038;-54
2022/09/06 05:39:20;;;;;;;1.10;0.65;;;;;;;12.62;50.84;100083.53;5008415;28;20272;-49
2022/09/06 05:41:46;;;;;;;1.15;0.60;;;;;;;12.47;51.10;100080.31;5009686;28;20057;-50
2022/09/06 05:44:13;;;;;;;1.02;0.60;;;;;;;12.10;51.51;100061.91;5010632;28;20386;-48
2022/09/06 05:46:44;;;;;;;1.45;0.70;;;;;;;12.07;52.40;100087.19;5010297;28;20026;-50
2022/09/06 05:49:10;;;;;;;4.82;0.70;;;;;;;12.02;52.37;100082.19;5010217;28;20030;-46
2022/09/06 05:51:36;;;;;;;1.60;0.90;;;;;;;12.18;52.25;100080.94;5012101;28;20030;-51
2022/09/06 05:54:01;;;;;;;2.70;0.88;;;;;;;12.18;51.80;100057.63;5014339;28;20037;-50
2022/09/06 05:56:27;;;;;;;0.90;0.73;;;;;;;12.43;51.71;100089.63;5013918;28;20077;-51
2022/09/06 05:58:52;;;;;;;1.77;0.70;;;;;;;12.43;51.70;100071.66;5013782;28;20041;-50
2022/09/06 06:01:26;;;;;;;1.52;0.90;;;;;;;12.43;52.00;100089.63;5014326;28;20467;-50
2022/09/06 06:03:57;;;;;;;2.85;1.20;;;;;;;12.33;52.38;100084.16;5013856;28;20056;-53
2022/09/06 06:06:24;;;;;;;2.03;1.40;;;;;;;11.98;51.88;100058.38;5013697;28;20858;-52
2022/09/06 06:08:50;;;;;;;2.20;1.10;;;;;;;12.14;51.88;100085.69;5014125;28;20115;-51
2022/09/06 06:11:16;;;;;;;2.70;1.40;;;;;;;12.34;51.40;100083.19;5014294;28;20471;-53
2022/09/06 06:13:43;;;;;;;3.35;1.63;;;;;;;12.50;50.60;100085.41;5013746;28;20066;-46
2022/09/06 06:16:11;;;;;;;3.75;2.00;;;;;;;12.67;50.51;100089.34;5013769;28;20038;-50
2022/09/06 06:18:37;;;;;;;6.40;2.60;;;;;;;13.04;49.56;100088.88;5013910;28;20072;-54
2022/09/06 06:21:13;;;;;;;11.35;2.40;;;;;;;13.48;48.93;100093.16;5014483;28;20030;-53
2022/09/06 06:23:41;;;;;;;2.63;2.00;;;;;;;13.64;47.91;100088.13;5013513;28;20482;-49
2022/09/06 06:26:08;;;;;;;2.85;2.42;;;;;;;13.96;47.17;100085.34;5013361;28;20506;-51
2022/09/06 06:28:34;;;;;;;5.65;3.15;;;;;;;14.77;45.55;100082.41;5014247;28;20028;-49
2022/09/06 06:31:01;;;;;;;4.20;3.28;;;;;;;15.65;42.68;100058.78;5014222;28;20033;-48
2022/09/06 06:33:26;;;;;;;3.70;3.00;;;;;;;16.26;40.54;100050.13;5013102;28;20082;-48
2022/09/06 06:35:57;;;;;;;4.03;2.83;;;;;;;17.26;39.51;100076.88;5013190;28;20050;-53
2022/09/06 06:38:22;;;;;;;5.50;2.63;;;;;;;17.78;37.87;100078.59;5013648;28;20022;-52
2022/09/06 06:40:48;;;;;;;4.85;2.15;;;;;;;17.35;38.40;100073.16;5013816;28;20095;-48
2022/09/06 06:43:13;;;;;;;5.05;2.00;;;;;;;16.50;40.64;100065.69;5013188;28;20036;-50
2022/09/06 06:45:39;;;;;;;3.83;2.17;;;;;;;15.75;42.86;100085.72;5012827;28;20119;-52
2022/09/06 06:48:04;;;;;;;2.55;2.10;;;;;;;14.87;44.58;100060.81;5013710;28;20030;-52
2022/09/06 06:50:30;;;;;;;2.50;1.60;;;;;;;14.55;45.45;100080.00;5013570;28;20117;-49
2022/09/06 06:52:55;;;;;;;4.32;3.15;;;;;;;14.88;44.97;100077.84;5013045;28;20036;-52
2022/09/06 06:55:21;;;;;;;4.13;2.13;;;;;;;16.29;41.89;100071.44;5012526;28;20121;-52
2022/09/06 06:57:47;;;;;;;4.30;1.70;;;;;;;17.47;39.14;100086.44;5013203;28;20529;-50
2022/09/06 07:00:12;;;;;;;5.43;1.90;;;;;;;17.81;38.02;100084.69;5013317;28;20116;-48
2022/09/06 07:02:38;;;;;;;5.65;1.90;;;;;;;18.20;37.04;100075.97;5012178;28;20076;-47
2022/09/06 07:05:04;;;;;;;2.92;2.33;;;;;;;18.56;35.64;100058.53;5012763;28;20037;-51
2022/09/06 07:07:30;;;;;;;3.53;1.90;;;;;;;19.62;33.57;100064.75;5012840;28;20052;-51
2022/09/06 07:09:56;;;;;;;2.40;1.83;;;;;;;20.19;32.45;100068.16;5016045;28;20041;-56
2022/09/06 07:12:22;;;;;;;4.57;2.00;;;;;;;23.36;27.79;100061.84;5023438;28;20028;-53
2022/09/06 07:14:47;;;;;;;5.78;2.00;;;;;;;27.09;22.72;100056.09;5013163;28;20125;-56
2022/09/06 07:17:13;;;;;;;2.50;1.63;;;;;;;26.79;22.35;100062.31;5019008;28;20029;-53
2022/09/06 07:19:38;;;;;;;2.00;1.55;;;;;;;24.94;24.63;100064.50;5024334;28;20025;-54
2022/09/06 07:22:04;;;;;;;2.00;1.30;;;;;;;26.60;22.85;100055.94;5032263;28;20022;-56
2022/09/06 07:24:29;;;;;;;3.35;2.13;;;;;;;29.74;19.33;100053.44;5032135;28;20029;-56
2022/09/06 07:26:55;;;;;;;5.38;2.28;;;;;;;31.60;16.98;100051.97;5017229;28;20127;-52
2022/09/06 07:29:20;;;;;;;2.03;1.52;;;;;;;33.90;14.95;100048.63;5013240;28;20152;-52
2022/09/06 07:31:45;;;;;;;4.15;1.73;;;;;;;35.70;13.72;100049.50;5012422;28;20034;-53
2022/09/06 07:34:11;;;;;;;4.43;1.50;;;;;;;34.12;14.39;100059.53;5025725;28;20028;-56
2022/09/06 07:36:37;;;;;;;4.20;1.63;;;;;;;31.03;16.75;100048.44;5013357;28;20144;-54
2022/09/06 07:39:03;;;;;;;4.13;1.40;;;;;;;27.98;19.52;100051.25;5023963;28;20033;-56
2022/09/06 07:41:28;;;;;;;1.95;1.27;;;;;;;25.20;22.64;100057.31;5020758;28;20389;-59
2022/09/06 07:43:54;;;;;;;3.75;1.40;;;;;;;23.33;24.87;100048.59;5026974;28;20455;-55
2022/09/06 07:46:20;;;;;;;2.65;1.35;;;;;;;21.83;27.06;100063.06;5024159;28;20033;-53
2022/09/06 07:48:46;;;;;;;3.53;2.00;;;;;;;20.56;28.82;100048.50;5031511;28;20026;-53
2022/09/06 07:51:12;;;;;;;3.15;2.05;;;;;;;19.75;30.36;100053.28;5019552;28;20030;-54
2022/09/06 07:53:40;;;;;;;1.73;1.50;;;;;;;19.60;30.74;100055.94;5020129;28;20039;-54
2022/09/06 07:56:09;;;;;;;2.25;1.10;;;;;;;19.52;31.00;100053.22;5030283;28;20021;-53
2022/09/06 07:58:35;;;;;;;1.92;1.35;;;;;;;19.17;31.61;100039.13;5024757;28;20091;-51
2022/09/06 08:01:29;;;;;;;3.25;1.30;;;;;;;19.10;33.09;100049.00;5011252;28;20034;-56
2022/09/06 08:03:57;;;;;;;1.98;1.20;;;;;;;18.01;35.99;100050.91;5012754;28;20080;-54
2022/09/06 08:06:23;;;;;;;2.60;1.02;;;;;;;17.12;37.85;100051.25;5028075;28;20424;-57
2022/09/06 08:08:49;;;;;;;3.08;1.10;;;;;;;16.00;40.60;100051.75;5011112;28;20044;-55
2022/09/06 08:11:15;;;;;;;4.35;1.23;;;;;;;15.21;43.88;100056.75;5021988;28;20041;-54
2022/09/06 08:13:41;;;;;;;4.57;1.40;;;;;;;14.59;45.54;100070.63;5022159;28;20030;-52
2022/09/06 08:16:09;;;;;;;8.68;1.40;;;;;;;14.25;45.89;100063.84;5015065;28;20034;-52
2022/09/06 08:18:36;;;;;;;2.78;0.90;;;;;;;14.36;46.72;100057.47;5031038;28;20044;-56
2022/09/06 08:21:12;;;;;;;1.83;1.10;;;;;;;14.88;45.43;100050.88;5013812;28;20034;-54
2022/09/06 08:23:41;;;;;;;1.73;1.17;;;;;;;15.54;44.54;100042.78;5016411;28;20038;-53
2022/09/06 08:26:07;;;;;;;3.00;1.48;;;;;;;16.24;42.61;100044.03;5018519;28;20088;-56
2022/09/06 08:28:33;;;;;;;4.65;1.23;;;;;;;16.71;39.95;100045.56;5019766;28;20029;-52
2022/09/06 08:31:11;;;;;;;5.90;1.40;;;;;;;16.62;39.93;100044.66;5019866;28;20033;-55
2022/09/06 08:33:37;;;;;;;5.90;1.13;;;;;;;15.89;40.31;100044.72;5021366;28;20112;-55
2022/09/06 08:36:03;;;;;;;1.85;1.00;;;;;;;15.36;41.73;100040.91;5018408;28;20064;-55
2022/09/06 08:38:29;;;;;;;2.75;1.13;;;;;;;14.86;41.91;100010.59;5018636;28;20033;-54
2022/09/06 08:41:28;;;;;;;1.75;0.85;;;;;;;15.24;41.62;100040.25;5018449;28;20030;-52
2022/09/06 08:43:59;;;;;;;1.42;0.90;;;;;;;15.88;41.07;100021.41;5025468;28;20057;-52
2022/09/06 08:46:37;;;;;;;1.15;0.75;;;;;;;16.27;39.28;100020.25;5022853;28;20029;-52
2022/09/06 08:49:04;;;;;;;1.75;0.90;;;;;;;16.10;39.36;100019.25;5020284;28;20458;-49
2022/09/06 08:51:56;;;;;;;3.08;1.27;;;;;;;16.13;39.94;100013.53;5026236;28;20445;-56
2022/09/06 08:54:47;;;;;;;4.20;1.40;;;;;;;16.23;40.39;100012.63;5015182;28;20040;-55
2022/09/06 08:57:30;;;;;;;2.45;1.20;;;;;;;16.24;40.03;100017.84;5019180;28;20033;-52
2022/09/06 09:00:00;;;;;;;1.58;1.00;;;;;;;16.21;39.77;100016.34;5029390;28;20060;-48
2022/09/06 09:02:30;;;;;;;2.08;0.93;;;;;;;16.07;39.21;100011.47;5028022;28;20065;-49
2022/09/06 09:05:01;;;;;;;2.38;1.08;;;;;;;16.19;38.85;99995.88;5029943;28;20033;-50
2022/09/06 09:07:39;;;;;;;2.00;1.20;;;;;;;16.52;38.54;100009.66;5027195;28;20046;-55
2022/09/06 09:10:11;;;;;;;1.92;1.10;;;;;;;16.57;37.71;99992.94;5026611;28;20076;-51
2022/09/06 09:12:44;;;;;;;3.92;1.33;;;;;;;16.75;38.33;100017.19;5012814;28;20107;-54
2022/09/06 09:15:12;;;;;;;5.47;1.10;;;;;;;16.38;39.09;99992.13;5018929;28;20022;-54
2022/09/06 09:17:38;;;;;;;1.00;0.98;;;;;;;16.06;39.52;100007.06;5017134;28;20042;-54
2022/09/06 09:20:07;;;;;;;2.45;1.05;;;;;;;15.58;40.85;100020.75;5019491;28;20055;-56
2022/09/06 09:22:32;;;;;;;2.63;1.10;;;;;;;15.48;41.50;100015.41;5019401;28;20030;-54
2022/09/06 09:25:00;;;;;;;3.33;1.30;;;;;;;15.38;42.00;100013.75;5018900;28;20182;-51
2022/09/06 09:27:27;;;;;;;4.35;1.27;;;;;;;15.19;42.50;100018.25;5021978;28;20670;-52
2022/09/06 09:29:53;;;;;;;1.67;1.10;;;;;;;15.03;43.17;100011.66;5024974;28;20064;-54
2022/09/06 09:32:38;;;;;;;2.28;1.23;;;;;;;15.45;42.18;100004.91;5015651;28;20137;-54
2022/09/06 09:35:28;;;;;;;3.17;1.33;;;;;;;15.93;41.38;100008.31;5031850;28;20041;-55
2022/09/06 09:38:11;;;;;;;2.80;1.40;;;;;;;16.36;40.66;100002.25;5014145;28;20045;-54
2022/09/06 09:40:40;;;;;;;3.17;1.13;;;;;;;16.62;40.06;100001.41;5014902;28;20034;-52
2022/09/06 09:43:23;;;;;;;1.95;1.23;;;;;;;16.67;39.86;100000.94;5014892;28;20022;-54
2022/09/06 09:46:23;;;;;;;1.73;1.58;;;;;;;16.30;42.08;100005.59;5018146;28;20402;-54
2022/09/06 09:49:09;;;;;;;1.50;1.15;;;;;;;15.57;45.16;100018.22;5012979;28;20069;-50
2022/09/06 09:51:46;;;;;;;2.85;1.13;;;;;;;15.02;46.91;99992.94;5014332;28;20058;-53
2022/09/06 09:54:28;;;;;;;3.67;1.10;;;;;;;14.89;47.34;100009.44;5021564;28;20083;-52
2022/09/06 09:56:55;;;;;;;1.10;1.00;;;;;;;14.78;46.73;99992.47;5033613;28;20107;-53
2022/09/06 09:59:36;;;;;;;2.13;1.23;;;;;;;14.93;46.21;100017.09;5015012;28;20434;-50
2022/09/06 10:02:27;;;;;;;4.13;1.10;;;;;;;15.25;45.79;100006.03;5014071;28;20133;-51
2022/09/06 10:05:03;;;;;;;1.40;1.20;;;;;;;15.71;44.96;100008.75;5029739;28;20104;-49
2022/09/06 10:07:32;;;;;;;1.40;1.30;;;;;;;15.95;44.34;100000.06;5025554;28;20047;-49
2022/09/06 10:10:05;;;;;;;1.75;1.20;;;;;;;16.10;43.94;100005.75;5033543;28;20041;-52
2022/09/06 10:12:39;;;;;;;1.73;1.20;;;;;;;16.26;43.01;100001.50;5033681;28;20468;-51
2022/09/06 10:15:07;;;;;;;3.42;1.00;;;;;;;16.10;42.38;100002.22;5017500;28;20046;-48
2022/09/06 10:17:32;;;;;;;3.47;1.00;;;;;;;16.01;41.89;99995.91;5013176;28;20065;-52
2022/09/06 10:20:10;;;;;;;1.45;0.80;;;;;;;15.83;42.27;100002.09;5014031;28;20180;-54
2022/09/06 10:23:04;;;;;;;1.67;0.95;;;;;;;15.77;42.88;100008.13;5014893;28;20037;-53
2022/09/06 10:25:36;;;;;;;1.95;1.13;;;;;;;15.36;43.39;100003.16;5012932;28;20087;-50
2022/09/06 10:28:30;;;;;;;1.65;1.42;;;;;;;15.12;44.01;100009.06;5014059;28;20553;-51
2022/09/06 10:31:16;;;;;;;3.28;1.40;;;;;;;14.84;44.85;100009.03;5013658;28;20145;-46
2022/09/06 10:34:19;;;;;;;1.73;1.10;;;;;;;14.64;45.01;100000.97;5014359;28;20030;-52
2022/09/06 10:37:07;;;;;;;2.40;0.90;;;;;;;14.61;45.52;100012.06;5012325;28;20038;-49
2022/09/06 10:39:53;;;;;;;2.28;1.20;;;;;;;14.53;45.78;100010.09;5021724;28;20040;-50
2022/09/06 10:42:44;;;;;;;3.05;1.42;;;;;;;14.64;45.52;100009.94;5032519;28;20040;-51
2022/09/06 10:45:41;;;;;;;2.75;1.15;;;;;;;14.64;45.65;100011.75;5031756;28;20033;-49
2022/09/06 10:48:15;;;;;;;2.88;1.20;;;;;;;14.62;45.94;100008.38;5032499;28;20053;-48
2022/09/06 10:51:00;;;;;;;2.90;1.33;;;;;;;14.67;45.51;99999.84;5031930;28;20529;-49
2022/09/06 10:54:00;;;;;;;1.17;0.90;;;;;;;14.68;45.63;100013.16;5030040;28;20087;-50
2022/09/06 10:56:35;;;;;;;2.13;1.02;;;;;;;14.36;45.90;100008.97;5031903;28;20119;-52
2022/09/06 10:59:26;;;;;;;3.88;1.20;;;;;;;14.10;46.76;100006.88;5029941;28;20037;-51
2022/09/06 11:02:15;;;;;;;1.20;1.00;;;;;;;13.85;47.10;100005.59;5031802;28;20370;-48
2022/09/06 11:04:43;;;;;;;2.53;1.40;;;;;;;13.97;46.88;100003.63;5029665;28;20179;-49
2022/09/06 11:07:38;;;;;;;3.03;1.30;;;;;;;14.40;46.09;100007.69;5031998;28;20041;-55
2022/09/06 11:10:26;;;;;;;3.42;1.30;;;;;;;14.61;45.78;100003.97;5025598;28;20044;-50
2022/09/06 11:12:59;;;;;;;4.55;1.20;;;;;;;14.70;45.24;99995.00;5030430;28;20037;-49
2022/09/06 11:15:28;;;;;;;2.95;1.40;;;;;;;14.77;44.93;99996.16;5031868;28;20385;-50
2022/09/06 11:18:05;;;;;;;6.60;1.88;;;;;;;14.71;45.17;99987.81;5013603;28;20030;-47
2022/09/06 11:20:40;;;;;;;3.30;1.60;;;;;;;14.35;46.06;99991.13;5012029;28;20030;-49
2022/09/06 11:23:08;;;;;;;2.83;1.63;;;;;;;14.19;48.02;99989.84;5016238;28;20037;-47
2022/09/06 11:25:52;;;;;;;3.20;1.73;;;;;;;14.31;48.09;99987.03;5013285;28;20064;-50
2022/09/06 11:28:43;;;;;;;2.03;1.73;;;;;;;14.33;47.71;99993.94;5014585;28;20038;-52
2022/09/06 11:31:12;;;;;;;3.40;1.92;;;;;;;14.18;48.01;99988.16;5012644;28;20045;-54
2022/09/06 11:33:38;;;;;;;2.33;1.70;;;;;;;13.94;49.01;99988.63;5012637;28;20467;-52
2022/09/06 11:36:29;;;;;;;3.17;1.60;;;;;;;13.84;49.25;99985.91;5023840;28;20065;-54
2022/09/06 11:39:01;;;;;;;4.90;1.50;;;;;;;13.76;48.63;99977.72;5030676;28;20112;-57
2022/09/06 11:41:33;;;;;;;3.80;1.90;;;;;;;13.92;47.50;99977.97;5029063;28;20041;-47
2022/09/06 11:43:59;;;;;;;3.38;1.80;;;;;;;14.04;47.71;99978.69;5016484;28;20103;-51
2022/09/06 11:46:47;;;;;;;2.58;1.50;;;;;;;14.39;46.92;99979.06;5019689;28;20092;-54